createdAt,value
2023-03-03T00:04:10.147Z,3.30
2023-03-03T00:19:16.826Z,3.29
2023-03-03T00:34:28.626Z,3.26
2023-03-03T00:49:32.016Z,3.23
2023-03-03T01:04:35.364Z,3.20
2023-03-03T01:19:38.597Z,3.00
2023-03-03T01:34:41.758Z,2.87
2023-03-03T01:49:52.740Z,2.63
2023-03-03T02:04:56.177Z,2.40
2023-03-03T02:20:06.681Z,2.59
2023-03-03T02:35:29.078Z,2.32
2023-03-03T02:50:32.538Z,2.17
2023-03-03T03:05:35.800Z,2.26
2023-03-03T03:20:41.718Z,2.06
2023-03-03T03:35:47.724Z,2.12
2023-03-03T03:50:52.343Z,2.26
2023-03-03T04:05:56.696Z,2.27
2023-03-03T04:21:00.340Z,2.12
2023-03-03T04:36:04.961Z,2.03
2023-03-03T04:51:08.198Z,2.01
2023-03-03T05:06:12.568Z,1.91
2023-03-03T05:21:15.905Z,1.94
2023-03-03T05:36:19.386Z,2.01
2023-03-03T05:51:22.741Z,2.18
2023-03-03T06:06:28.457Z,2.14
2023-03-03T06:21:31.641Z,2.25
2023-03-03T06:36:34.854Z,2.37
2023-03-03T06:51:40.112Z,2.53
2023-03-03T07:06:43.575Z,2.59
2023-03-03T07:21:46.721Z,2.75
2023-03-03T07:36:53.838Z,2.60
2023-03-03T07:51:59.711Z,2.53
2023-03-03T08:07:03.906Z,2.61
2023-03-03T08:22:16.767Z,2.78
2023-03-03T08:37:19.890Z,2.87
2023-03-03T08:52:23.085Z,2.88
2023-03-03T09:07:26.800Z,2.86
2023-03-03T09:22:36.602Z,3.18
2023-03-03T09:37:41.384Z,3.34
2023-03-03T09:53:15.500Z,3.43
2023-03-03T10:08:46.276Z,3.70
2023-03-03T10:23:53.739Z,4.01
2023-03-03T10:39:35.228Z,4.17
2023-03-03T10:54:56.817Z,4.26
2023-03-03T11:10:21.403Z,4.58
2023-03-03T11:25:37.813Z,5.04
2023-03-03T11:40:56.351Z,5.30
2023-03-03T11:56:25.284Z,5.54
2023-03-03T12:11:46.551Z,5.93
2023-03-03T12:27:07.698Z,6.55
2023-03-03T12:42:22.376Z,7.06
2023-03-03T12:57:49.820Z,8.56
2023-03-03T13:12:55.676Z,9.80
2023-03-03T13:28:09.184Z,10.83
2023-03-03T13:43:23.858Z,10.02
2023-03-03T13:58:42.821Z,13.53
2023-03-03T14:14:05.215Z,15.27
2023-03-03T14:29:31.034Z,10.56
2023-03-03T14:44:50.495Z,8.53
2023-03-03T15:00:26.957Z,7.56
2023-03-03T15:15:30.288Z,7.01
2023-03-03T15:30:41.280Z,6.87
2023-03-03T15:46:09.006Z,6.73
2023-03-03T16:01:19.800Z,6.56
2023-03-03T16:16:35.113Z,6.05
2023-03-03T16:31:48.689Z,5.64
2023-03-03T16:46:53.058Z,5.43
2023-03-03T17:02:15.394Z,5.34
2023-03-03T17:17:40.500Z,5.12
2023-03-03T17:33:00.544Z,5.05
2023-03-03T17:48:21.710Z,4.87
2023-03-03T18:03:54.446Z,4.77
2023-03-03T18:19:20.071Z,4.64
2023-03-03T18:34:42.435Z,4.58
2023-03-03T18:49:57.079Z,4.58
2023-03-03T19:05:17.001Z,4.57
2023-03-03T19:20:23.871Z,4.55
2023-03-03T19:35:46.002Z,4.42
2023-03-03T19:51:22.332Z,4.42
2023-03-03T20:06:45.150Z,4.54
2023-03-03T20:22:20.002Z,4.50
2023-03-03T20:37:38.890Z,4.53
2023-03-03T20:52:54.888Z,4.48
2023-03-03T21:08:04.256Z,4.54
2023-03-03T21:23:10.869Z,4.43
2023-03-03T21:38:33.344Z,4.45
2023-03-03T21:53:44.694Z,4.45
2023-03-03T22:08:54.328Z,4.43
2023-03-03T22:23:58.784Z,4.58
2023-03-03T22:39:02.078Z,4.66
2023-03-03T22:54:06.666Z,4.73
2023-03-03T23:09:14.060Z,4.70
2023-03-03T23:24:18.158Z,4.67
2023-03-03T23:39:21.277Z,4.62
2023-03-03T23:54:24.478Z,4.68
